Time;durP1;ratioP1;P1;durP2;ratioP2;P2;SDS_P1;SDS_P2;PMS_P1;PMS_P2;Temp;Humidity;BMP_temperature;BMP_pressure;BME280_temperature;BME280_humidity;BME280_pressure;Samples;Min_cycle;Max_cycle;Signal;HPM_P1;HPM_P2
2022/01/08 00:00:44;;;;;;;16.47;11.80;;;;;;;6.84;100.00;99758.16;5036849;28;20204;-65
2022/01/08 00:03:11;;;;;;;14.77;11.50;;;;;;;6.84;100.00;99760.69;5036880;28;20201;-65
2022/01/08 00:05:38;;;;;;;12.20;10.17;;;;;;;6.90;100.00;99760.63;5047322;28;20201;-65
2022/01/08 00:08:05;;;;;;;14.07;9.73;;;;;;;6.91;100.00;99751.28;5047483;28;20696;-65
2022/01/08 00:10:33;;;;;;;18.03;11.07;;;;;;;6.93;100.00;99758.06;5043609;28;20208;-65
2022/01/08 00:13:03;;;;;;;21.23;13.60;;;;;;;6.90;100.00;99755.53;5047727;28;20205;-65
2022/01/08 00:15:30;;;;;;;24.93;13.63;;;;;;;6.89;100.00;99751.28;5046744;28;20197;-65
2022/01/08 00:17:59;;;;;;;21.47;12.80;;;;;;;6.87;100.00;99750.47;5051071;28;20281;-65
2022/01/08 00:20:26;;;;;;;23.00;12.43;;;;;;;6.90;100.00;99754.69;5048633;28;20225;-65
2022/01/08 00:22:54;;;;;;;20.27;13.07;;;;;;;6.92;100.00;99755.50;5040077;28;20259;-66
2022/01/08 00:25:21;;;;;;;18.57;11.30;;;;;;;6.93;100.00;99749.56;5045556;28;20201;-65
2022/01/08 00:27:48;;;;;;;15.73;11.07;;;;;;;6.95;100.00;99753.78;5049198;28;20216;-65
2022/01/08 00:30:15;;;;;;;15.10;10.47;;;;;;;6.93;100.00;99750.41;5049593;28;20189;-65
2022/01/08 00:32:42;;;;;;;12.17;9.83;;;;;;;6.93;100.00;99747.84;5032121;28;20193;-65
2022/01/08 00:35:11;;;;;;;14.70;11.00;;;;;;;6.84;100.00;99730.97;5045031;28;20207;-65
2022/01/08 00:37:39;;;;;;;21.90;10.83;;;;;;;6.93;100.00;99736.81;5040249;28;20200;-66
2022/01/08 00:40:07;;;;;;;12.53;10.20;;;;;;;6.95;100.00;99743.56;5034505;28;20677;-66
2022/01/08 00:42:34;;;;;;;12.70;9.37;;;;;;;6.89;100.00;99738.53;5035579;28;20200;-65
2022/01/08 00:45:01;;;;;;;13.67;11.07;;;;;;;6.95;100.00;99733.38;5050642;28;20201;-65
2022/01/08 00:47:27;;;;;;;52.47;20.10;;;;;;;6.91;100.00;99731.75;5049268;28;20208;-65
2022/01/08 00:49:54;;;;;;;60.77;24.83;;;;;;;6.88;100.00;99727.50;5036923;28;20283;-65
2022/01/08 00:52:22;;;;;;;52.53;24.67;;;;;;;6.95;100.00;99733.38;5036910;28;20196;-65
2022/01/08 00:54:49;;;;;;;31.07;16.53;;;;;;;6.93;100.00;99730.00;5038605;28;20213;-65
2022/01/08 00:57:16;;;;;;;16.07;11.43;;;;;;;6.93;100.00;99731.72;5037859;28;20200;-65
2022/01/08 00:59:43;;;;;;;18.40;12.53;;;;;;;6.87;100.00;99719.88;5040339;28;20206;-65
2022/01/08 01:02:10;;;;;;;12.67;10.77;;;;;;;6.88;100.00;99725.84;5035436;28;20747;-66
2022/01/08 01:04:37;;;;;;;13.47;11.00;;;;;;;6.90;100.00;99730.06;5039028;28;20201;-65
2022/01/08 01:07:04;;;;;;;13.57;10.73;;;;;;;6.93;100.00;99721.53;5031950;28;20609;-67
2022/01/08 01:09:32;;;;;;;15.93;10.10;;;;;;;6.93;100.00;99714.72;5042420;28;20215;-65
2022/01/08 01:11:59;;;;;;;12.27;10.93;;;;;;;6.90;100.00;99703.72;5037695;28;20212;-65
2022/01/08 01:14:27;;;;;;;17.40;11.70;;;;;;;6.84;100.00;99685.09;5039156;28;20226;-66
2022/01/08 01:16:54;;;;;;;11.73;9.87;;;;;;;6.98;100.00;99710.41;5040375;28;20200;-65
2022/01/08 01:19:21;;;;;;;16.73;11.43;;;;;;;6.95;100.00;99697.69;5049047;28;20302;-66
2022/01/08 01:21:48;;;;;;;14.57;11.57;;;;;;;6.96;100.00;99704.50;5050081;28;20196;-65
2022/01/08 01:24:19;;;;;;;11.40;10.20;;;;;;;6.97;100.00;99698.56;5049267;28;20203;-65
2022/01/08 01:27:09;;;;;;;13.30;11.30;;;;;;;6.96;100.00;99699.41;5046191;28;20235;-65
2022/01/08 01:29:45;;;;;;;13.50;12.03;;;;;;;6.96;100.00;99688.34;5044465;28;20204;-65
2022/01/08 01:47:00;;;;;;;18.73;12.70;;;;;;;6.97;100.00;99673.06;5037861;28;20204;-65
2022/01/08 01:49:08;;;;;;;15.43;11.67;;;;;;;6.95;100.00;99656.94;5037800;28;20231;-66
2022/01/08 01:51:35;;;;;;;19.17;12.83;;;;;;;6.95;100.00;99651.81;5039283;28;20193;-65
2022/01/08 01:54:02;;;;;;;15.17;12.03;;;;;;;6.92;100.00;99645.91;5037860;28;20205;-65
2022/01/08 01:56:29;;;;;;;15.70;11.70;;;;;;;6.87;100.00;99635.78;5034762;28;20290;-65
2022/01/08 01:58:57;;;;;;;14.77;11.73;;;;;;;6.87;100.00;99646.00;5032993;28;20598;-65
2022/01/08 02:01:24;;;;;;;17.23;12.03;;;;;;;6.93;100.00;99653.56;5042655;28;20720;-65
2022/01/08 02:03:51;;;;;;;13.40;11.60;;;;;;;6.94;100.00;99660.34;5032210;28;20283;-65
2022/01/08 02:06:18;;;;;;;15.43;11.53;;;;;;;6.93;100.00;99656.09;5040519;28;20691;-66
2022/01/08 02:08:45;;;;;;;13.70;11.10;;;;;;;6.95;100.00;99646.72;5034034;28;20237;-66
2022/01/08 02:11:12;;;;;;;13.13;10.43;;;;;;;6.94;100.00;99639.97;5032576;28;20837;-65
2022/01/08 02:13:39;;;;;;;14.50;11.80;;;;;;;6.96;100.00;99643.34;5032652;28;20205;-66
2022/01/08 02:16:16;;;;;;;16.77;11.70;;;;;;;6.95;100.00;99644.19;5034706;28;20577;-65
2022/01/08 02:18:44;;;;;;;15.30;11.30;;;;;;;6.89;100.00;99636.59;5034492;28;20729;-65
2022/01/08 02:21:13;;;;;;;13.83;11.40;;;;;;;6.88;100.00;99630.66;5034048;28;20216;-65
2022/01/08 02:23:40;;;;;;;13.00;11.20;;;;;;;6.90;100.00;99628.13;5037278;28;20225;-65
2022/01/08 02:26:08;;;;;;;13.63;11.87;;;;;;;6.84;100.00;99613.75;5033308;28;20688;-66
2022/01/08 02:28:35;;;;;;;14.53;11.40;;;;;;;6.88;100.00;99620.47;5032607;28;20221;-67
2022/01/08 02:31:02;;;;;;;18.17;11.97;;;;;;;6.82;100.00;99614.59;5040448;28;20204;-65
2022/01/08 02:33:30;;;;;;;16.73;11.47;;;;;;;6.83;100.00;99606.09;5042098;28;20192;-66
2022/01/08 02:35:57;;;;;;;15.53;11.47;;;;;;;6.90;100.00;99617.06;5042190;28;20584;-66
2022/01/08 02:38:25;;;;;;;18.60;12.70;;;;;;;6.70;100.00;99579.94;5045716;28;20194;-65
2022/01/08 02:40:56;;;;;;;17.23;11.07;;;;;;;6.85;100.00;99605.22;5054014;28;20247;-66
2022/01/08 02:43:23;;;;;;;13.50;10.87;;;;;;;6.89;100.00;99611.13;5053691;28;20263;-65
2022/01/08 02:45:50;;;;;;;14.50;10.80;;;;;;;6.72;100.00;99590.13;5045451;28;20201;-65
2022/01/08 02:48:17;;;;;;;17.53;11.97;;;;;;;6.77;100.00;99601.09;5053415;28;20224;-66
2022/01/08 02:50:44;;;;;;;17.30;11.80;;;;;;;6.87;100.00;99607.78;5045418;28;20200;-66
2022/01/08 02:53:11;;;;;;;15.97;11.50;;;;;;;6.89;100.00;99600.94;5050930;28;20202;-66
2022/01/08 02:55:39;;;;;;;16.30;12.47;;;;;;;6.88;100.00;99594.19;5042981;28;20214;-65
2022/01/08 02:58:06;;;;;;;16.80;11.80;;;;;;;6.92;100.00;99597.50;5050662;28;20201;-65
2022/01/08 03:00:33;;;;;;;13.43;11.40;;;;;;;6.92;100.00;99598.34;5053372;28;20215;-66
2022/01/08 03:03:00;;;;;;;17.70;10.83;;;;;;;6.93;100.00;99597.50;5052589;28;20204;-66
2022/01/08 03:05:27;;;;;;;19.30;12.30;;;;;;;6.91;100.00;99586.50;5043355;28;20209;-66
2022/01/08 03:07:54;;;;;;;23.77;13.97;;;;;;;6.81;100.00;99587.47;5045848;28;20220;-66
2022/01/08 03:10:21;;;;;;;32.73;20.87;;;;;;;6.76;100.00;99584.09;5036957;28;20197;-66
2022/01/08 03:12:50;;;;;;;55.53;27.00;;;;;;;6.74;100.00;99596.03;5044173;28;20201;-66
2022/01/08 03:15:18;;;;;;;37.20;21.50;;;;;;;6.74;100.00;99593.47;5039609;28;20203;-66
2022/01/08 03:17:45;;;;;;;27.17;16.47;;;;;;;6.69;100.00;99587.56;5045801;28;20258;-66
2022/01/08 03:20:14;;;;;;;22.37;13.97;;;;;;;6.59;100.00;99573.28;5040640;28;20227;-67
2022/01/08 03:22:42;;;;;;;21.27;12.43;;;;;;;6.76;100.00;99589.19;5036436;28;20197;-66
2022/01/08 03:25:11;;;;;;;49.80;21.77;;;;;;;6.75;100.00;99593.44;5035658;28;20193;-66
2022/01/08 03:27:37;;;;;;;56.97;27.10;;;;;;;6.79;100.00;99590.00;5040296;28;20217;-66
2022/01/08 03:30:07;;;;;;;52.10;30.73;;;;;;;6.78;100.00;99587.50;5047042;28;20298;-66
2022/01/08 03:32:34;;;;;;;113.53;48.87;;;;;;;6.69;100.00;99574.84;5049068;28;20192;-66
2022/01/08 03:35:01;;;;;;;55.27;27.43;;;;;;;6.75;100.00;99585.00;5051868;28;20196;-66
2022/01/08 03:37:28;;;;;;;40.70;21.93;;;;;;;6.74;100.00;99583.28;5048527;28;20581;-66
2022/01/08 03:39:55;;;;;;;44.03;22.37;;;;;;;6.73;100.00;99590.09;5050940;28;20600;-66
2022/01/08 03:42:22;;;;;;;35.20;16.87;;;;;;;6.69;100.00;99575.69;5050871;28;20689;-66
2022/01/08 03:44:49;;;;;;;139.90;41.27;;;;;;;6.78;100.00;99584.94;5052001;28;20631;-66
2022/01/08 03:50:04;;;;;;;175.53;48.97;;;;;;;6.76;100.00;99582.41;5021524;28;20573;-66
2022/01/08 03:52:31;;;;;;;95.27;33.03;;;;;;;6.80;100.00;99585.75;5044171;28;20197;-66
2022/01/08 03:54:58;;;;;;;110.17;33.87;;;;;;;6.82;100.00;99582.34;5039860;28;20677;-65
2022/01/08 03:57:25;;;;;;;38.73;18.97;;;;;;;6.82;100.00;99573.84;5040004;28;20208;-66
2022/01/08 03:59:52;;;;;;;23.63;12.23;;;;;;;6.80;100.00;99570.47;5037922;28;20220;-66
2022/01/08 04:02:20;;;;;;;23.77;12.47;;;;;;;6.80;100.00;99578.13;5046787;28;20197;-66
2022/01/08 04:04:48;;;;;;;16.37;11.23;;;;;;;6.77;100.00;99571.38;5040741;28;20201;-65
2022/01/08 04:07:15;;;;;;;12.63;10.90;;;;;;;6.81;100.00;99567.06;5037174;28;20640;-66
2022/01/08 04:09:42;;;;;;;18.07;12.30;;;;;;;6.79;100.00;99563.69;5043825;28;20286;-66
2022/01/08 04:12:09;;;;;;;23.37;13.10;;;;;;;6.75;100.00;99569.69;5041630;28;20201;-66
2022/01/08 04:14:49;;;;;;;59.27;20.23;;;;;;;6.76;100.00;99564.56;5042757;28;20197;-66
2022/01/08 04:17:16;;;;;;;68.93;24.20;;;;;;;6.77;100.00;99566.28;5041277;28;20208;-65
2022/01/08 04:19:45;;;;;;;52.80;18.33;;;;;;;6.77;100.00;99567.97;5039106;28;20217;-66
2022/01/08 04:22:13;;;;;;;30.60;14.17;;;;;;;6.76;100.00;99563.72;5038457;28;20572;-66
2022/01/08 04:24:40;;;;;;;31.83;14.80;;;;;;;6.76;100.00;99571.38;5049418;28;20196;-66
2022/01/08 04:27:07;;;;;;;33.13;15.63;;;;;;;6.79;100.00;99568.78;5044332;28;20577;-66
2022/01/08 04:29:34;;;;;;;297.37;77.03;;;;;;;6.80;100.00;99573.03;5049702;28;20217;-65
2022/01/08 04:32:01;;;;;;;168.40;48.73;;;;;;;6.82;100.00;99569.59;5049352;28;20303;-66
2022/01/08 04:34:28;;;;;;;62.37;25.73;;;;;;;6.80;100.00;99575.56;5036241;28;20209;-67
2022/01/08 04:36:56;;;;;;;123.10;41.70;;;;;;;6.80;100.00;99557.75;5049448;28;20201;-66
2022/01/08 04:39:23;;;;;;;94.27;34.67;;;;;;;6.82;100.00;99559.41;5047676;28;20215;-66
2022/01/08 04:41:50;;;;;;;54.67;23.97;;;;;;;6.88;100.00;99562.75;5042270;28;20328;-66
2022/01/08 04:44:17;;;;;;;131.13;41.33;;;;;;;6.85;100.00;99550.88;5045464;28;20683;-66
2022/01/08 04:46:43;;;;;;;78.83;30.90;;;;;;;6.82;100.00;99571.28;5039933;28;20634;-66
2022/01/08 04:49:11;;;;;;;127.47;43.07;;;;;;;6.80;100.00;99560.28;5044091;28;20297;-65
2022/01/08 04:51:37;;;;;;;90.40;33.47;;;;;;;6.83;100.00;99565.34;5041253;28;20258;-66
2022/01/08 04:54:06;;;;;;;70.70;28.03;;;;;;;6.83;100.00;99561.09;5045380;28;20208;-66
2022/01/08 04:56:32;;;;;;;75.83;27.83;;;;;;;6.86;100.00;99560.22;5037250;28;20202;-66
2022/01/08 04:59:00;;;;;;;38.63;20.70;;;;;;;6.86;100.00;99550.00;5038905;28;20232;-66
2022/01/08 05:01:27;;;;;;;36.47;17.60;;;;;;;6.79;100.00;99533.97;5042970;28;20664;-66
2022/01/08 05:03:53;;;;;;;23.07;13.17;;;;;;;6.89;100.00;99549.97;5040550;28;20596;-66
2022/01/08 05:06:20;;;;;;;21.23;12.13;;;;;;;6.91;100.00;99553.38;5044387;28;20208;-66
2022/01/08 05:08:47;;;;;;;12.70;9.57;;;;;;;6.86;100.00;99540.66;5041379;28;20217;-66
2022/01/08 05:11:15;;;;;;;9.20;8.40;;;;;;;6.93;100.00;99549.06;5046878;28;20203;-66
2022/01/08 05:13:44;;;;;;;14.20;9.30;;;;;;;6.85;100.00;99533.03;5042666;28;20201;-66
2022/01/08 05:16:11;;;;;;;13.93;10.53;;;;;;;6.92;100.00;99544.84;5037225;28;20262;-66
2022/01/08 05:18:38;;;;;;;16.97;11.50;;;;;;;6.81;100.00;99521.22;5035465;28;20256;-66
2022/01/08 05:21:21;;;;;;;31.80;17.60;;;;;;;6.93;100.00;99541.44;5038203;28;20213;-66
2022/01/08 05:23:48;;;;;;;27.83;15.90;;;;;;;6.85;100.00;99528.78;5039912;28;20192;-66
2022/01/08 05:26:16;;;;;;;25.53;13.40;;;;;;;6.96;100.00;99540.53;5038756;28;20205;-66
2022/01/08 05:28:44;;;;;;;26.83;14.60;;;;;;;6.98;100.00;99538.84;5041822;28;20681;-66
2022/01/08 05:31:12;;;;;;;17.33;11.60;;;;;;;6.99;100.00;99546.44;5045138;28;20224;-66
2022/01/08 05:33:38;;;;;;;16.80;11.73;;;;;;;7.00;100.00;99539.66;5037064;28;20197;-66
2022/01/08 05:36:06;;;;;;;17.57;12.20;;;;;;;7.00;100.00;99537.94;5035352;28;20578;-67
2022/01/08 05:38:33;;;;;;;18.20;12.23;;;;;;;6.98;100.00;99533.75;5039521;28;20689;-66
2022/01/08 05:41:00;;;;;;;39.30;19.87;;;;;;;6.97;100.00;99530.34;5041075;28;20600;-66
2022/01/08 05:43:28;;;;;;;25.10;15.90;;;;;;;6.99;100.00;99535.41;5047169;28;20205;-66
2022/01/08 05:45:56;;;;;;;41.27;21.00;;;;;;;6.99;100.00;99541.34;5035869;28;20209;-66
2022/01/08 05:48:23;;;;;;;20.43;12.93;;;;;;;6.94;100.00;99538.03;5040626;28;20222;-66
2022/01/08 05:50:50;;;;;;;15.20;10.67;;;;;;;6.99;100.00;99546.44;5046747;28;20303;-66
2022/01/08 05:53:17;;;;;;;12.50;10.40;;;;;;;6.98;100.00;99544.75;5035398;28;20201;-66
2022/01/08 05:55:44;;;;;;;14.57;11.97;;;;;;;7.00;100.00;99548.13;5042804;28;20423;-66
2022/01/08 05:58:10;;;;;;;19.80;13.13;;;;;;;7.01;100.00;99549.81;5039123;28;20204;-66
2022/01/08 06:00:39;;;;;;;12.90;11.60;;;;;;;7.01;100.00;99544.69;5043891;28;20202;-66
2022/01/08 06:03:06;;;;;;;10.90;9.67;;;;;;;7.05;100.00;99550.59;5038984;28;20201;-66
2022/01/08 06:05:32;;;;;;;9.53;8.63;;;;;;;7.06;100.00;99552.31;5039003;28;20208;-65
2022/01/08 06:07:59;;;;;;;9.73;8.10;;;;;;;7.06;100.00;99557.41;5040445;28;20201;-66
2022/01/08 06:10:26;;;;;;;10.17;9.17;;;;;;;7.03;100.00;99553.19;5032604;28;20220;-66
2022/01/08 06:12:53;;;;;;;9.47;8.47;;;;;;;7.03;100.00;99558.28;5045080;28;20207;-66
2022/01/08 06:15:20;;;;;;;9.30;8.33;;;;;;;7.02;100.00;99555.75;5038555;28;20196;-66
2022/01/08 06:17:48;;;;;;;8.30;7.40;;;;;;;7.02;100.00;99551.50;5037024;28;20193;-66
2022/01/08 06:20:15;;;;;;;9.83;8.83;;;;;;;7.01;100.00;99554.91;5039727;28;20248;-66
2022/01/08 06:22:42;;;;;;;9.10;8.23;;;;;;;7.02;100.00;99551.50;5037780;28;20205;-66
2022/01/08 06:25:10;;;;;;;9.87;8.20;;;;;;;7.02;100.00;99555.75;5036470;28;20201;-66
2022/01/08 06:27:36;;;;;;;10.13;8.77;;;;;;;7.02;100.00;99556.59;5033135;28;20704;-66
2022/01/08 06:30:04;;;;;;;9.03;8.03;;;;;;;7.01;100.00;99552.34;5039103;28;20696;-66
2022/01/08 06:32:31;;;;;;;8.40;7.77;;;;;;;7.01;100.00;99549.81;5039865;28;20281;-66
2022/01/08 06:35:01;;;;;;;9.30;8.37;;;;;;;7.03;100.00;99553.19;5043988;28;20208;-66
2022/01/08 06:37:27;;;;;;;8.43;7.67;;;;;;;7.04;100.00;99554.88;5035557;28;20204;-66
2022/01/08 06:39:54;;;;;;;9.87;8.43;;;;;;;7.01;100.00;99554.91;5040501;28;20263;-66
2022/01/08 06:42:21;;;;;;;10.07;8.43;;;;;;;7.02;100.00;99554.03;5036695;28;20212;-65
2022/01/08 06:44:48;;;;;;;10.17;8.30;;;;;;;7.02;100.00;99548.09;5039555;28;20201;-66
2022/01/08 06:47:15;;;;;;;8.27;7.47;;;;;;;7.01;100.00;99549.81;5042996;28;20204;-66
2022/01/08 06:49:42;;;;;;;14.30;9.37;;;;;;;7.03;100.00;99552.34;5039794;28;20216;-66
2022/01/08 06:52:10;;;;;;;9.60;8.67;;;;;;;7.06;100.00;99547.19;5040604;28;20209;-66
2022/01/08 06:54:37;;;;;;;9.33;8.53;;;;;;;7.00;100.00;99543.03;5040120;28;20201;-66
2022/01/08 06:57:04;;;;;;;9.70;8.87;;;;;;;7.06;100.00;99547.19;5036170;28;22106;-66
2022/01/08 06:59:31;;;;;;;9.10;8.30;;;;;;;7.07;100.00;99549.75;5043426;28;20201;-66
2022/01/08 07:01:57;;;;;;;9.23;8.33;;;;;;;7.09;100.00;99542.06;5041478;28;20212;-66
2022/01/08 07:04:24;;;;;;;11.37;9.00;;;;;;;7.09;100.00;99553.09;5040666;28;20226;-66
2022/01/08 07:06:51;;;;;;;8.93;8.07;;;;;;;7.09;100.00;99552.25;5039044;28;20207;-65
2022/01/08 07:09:19;;;;;;;11.10;9.90;;;;;;;7.09;100.00;99548.00;5036154;28;20227;-66
2022/01/08 07:11:46;;;;;;;13.07;9.13;;;;;;;7.12;100.00;99542.88;5035964;28;20204;-65
2022/01/08 07:14:13;;;;;;;19.67;13.47;;;;;;;7.10;100.00;99549.69;5040130;28;20261;-66
2022/01/08 07:16:40;;;;;;;11.63;9.87;;;;;;;7.08;100.00;99548.84;5040432;28;20550;-66
2022/01/08 07:19:07;;;;;;;12.93;11.43;;;;;;;7.10;100.00;99539.50;5041859;28;20201;-66
2022/01/08 07:21:34;;;;;;;14.57;10.77;;;;;;;7.10;100.00;99547.16;5042909;28;20287;-66
2022/01/08 07:24:01;;;;;;;14.00;11.30;;;;;;;7.12;100.00;99547.97;5038314;28;20201;-66
2022/01/08 07:26:29;;;;;;;18.50;13.40;;;;;;;7.13;100.00;99544.56;5041128;28;20985;-66
2022/01/08 07:28:56;;;;;;;16.80;12.40;;;;;;;7.12;100.00;99542.88;5044328;28;20220;-66
2022/01/08 07:31:23;;;;;;;18.77;12.50;;;;;;;7.13;100.00;99543.72;5041865;28;20205;-66
2022/01/08 07:33:50;;;;;;;14.20;10.57;;;;;;;7.14;100.00;99535.22;5044979;28;20701;-66
2022/01/08 07:36:17;;;;;;;19.47;12.03;;;;;;;7.17;100.00;99541.06;5042819;28;20259;-66
2022/01/08 07:38:44;;;;;;;13.10;11.30;;;;;;;7.14;100.00;99522.47;5042355;28;20685;-66
2022/01/08 07:41:11;;;;;;;20.03;12.73;;;;;;;7.19;100.00;99529.16;5044176;28;20634;-69
2022/01/08 07:43:40;;;;;;;14.60;11.83;;;;;;;7.21;100.00;99536.78;5041394;28;20212;-65
2022/01/08 07:46:06;;;;;;;17.10;11.83;;;;;;;7.14;100.00;99520.72;5039418;28;20201;-65
2022/01/08 07:48:34;;;;;;;33.03;17.10;;;;;;;7.21;100.00;99532.53;5043066;28;20205;-65
2022/01/08 07:51:01;;;;;;;23.93;15.77;;;;;;;7.25;100.00;99534.19;5048795;28;20710;-65
2022/01/08 07:53:28;;;;;;;30.40;17.47;;;;;;;7.20;100.00;99517.28;5044843;28;20209;-65
2022/01/08 07:55:55;;;;;;;25.43;17.07;;;;;;;7.28;100.00;99534.13;5047661;28;20216;-65
2022/01/08 07:58:21;;;;;;;16.43;11.10;;;;;;;7.27;100.00;99534.97;5035427;28;20283;-65
2022/01/08 08:00:50;;;;;;;18.20;11.03;;;;;;;7.27;100.00;99532.44;5040557;28;20209;-66
2022/01/08 08:03:18;;;;;;;16.97;11.63;;;;;;;7.25;100.00;99525.69;5039025;28;20208;-65
2022/01/08 08:05:45;;;;;;;16.17;12.13;;;;;;;7.35;100.00;99529.78;5044223;28;20209;-65
2022/01/08 08:08:15;;;;;;;15.23;11.47;;;;;;;7.36;100.00;99536.56;5038957;28;20205;-65
2022/01/08 08:10:42;;;;;;;16.40;10.77;;;;;;;7.33;100.00;99527.25;5046284;28;20331;-65
2022/01/08 08:13:09;;;;;;;12.73;9.87;;;;;;;7.34;100.00;99536.59;5042237;28;20204;-66
2022/01/08 08:15:36;;;;;;;20.13;12.33;;;;;;;7.34;100.00;99528.94;5037067;28;20259;-65
2022/01/08 08:18:04;;;;;;;14.23;11.50;;;;;;;7.38;100.00;99530.59;5042580;28;20204;-65
2022/01/08 08:20:31;;;;;;;15.63;10.70;;;;;;;7.38;100.00;99530.59;5038463;28;20272;-66
2022/01/08 08:22:58;;;;;;;14.20;11.00;;;;;;;7.28;100.00;99503.53;5038564;28;20259;-66
2022/01/08 08:25:25;;;;;;;19.97;12.13;;;;;;;7.40;100.00;99521.19;5046239;28;20219;-65
2022/01/08 08:27:52;;;;;;;23.13;13.27;;;;;;;7.39;100.00;99516.97;5038242;28;20649;-65
2022/01/08 08:30:20;;;;;;;19.37;12.63;;;;;;;7.46;100.00;99519.44;5036601;28;21686;-65
2022/01/08 08:32:48;;;;;;;23.57;12.53;;;;;;;7.45;100.00;99522.84;5035373;28;20688;-66
2022/01/08 08:35:16;;;;;;;22.17;10.93;;;;;;;7.46;100.00;99529.63;5035027;28;20665;-65
2022/01/08 08:37:43;;;;;;;12.70;11.07;;;;;;;7.51;100.00;99517.63;5039423;28;20975;-66
2022/01/08 08:40:12;;;;;;;14.13;10.60;;;;;;;7.52;100.00;99512.53;5039469;28;20255;-66
2022/01/08 08:42:39;;;;;;;13.77;10.13;;;;;;;7.54;100.00;99515.88;5041916;28;20700;-65
2022/01/08 08:45:08;;;;;;;14.43;11.40;;;;;;;7.46;100.00;99501.56;5039926;28;20201;-69
2022/01/08 08:47:35;;;;;;;16.70;11.60;;;;;;;7.58;100.00;99519.22;5042938;28;20232;-66
2022/01/08 08:50:02;;;;;;;32.70;17.63;;;;;;;7.60;100.00;99514.94;5045832;28;20220;-66
2022/01/08 08:52:30;;;;;;;19.80;12.90;;;;;;;7.60;100.00;99504.72;5043233;28;20584;-66
2022/01/08 08:54:57;;;;;;;23.93;15.53;;;;;;;7.59;100.00;99497.97;5048307;28;20208;-66
2022/01/08 08:57:24;;;;;;;24.50;16.13;;;;;;;7.64;100.00;99501.25;5034896;28;20208;-66
2022/01/08 08:59:51;;;;;;;23.23;13.17;;;;;;;7.65;100.00;99491.03;5039922;28;20198;-66
2022/01/08 09:02:18;;;;;;;32.33;17.97;;;;;;;7.64;100.00;99491.91;5042527;28;20201;-66
2022/01/08 09:04:45;;;;;;;38.83;24.13;;;;;;;7.62;100.00;99482.59;5041146;28;20660;-66
2022/01/08 09:07:11;;;;;;;35.80;21.57;;;;;;;7.61;100.00;99480.91;5041316;28;20564;-66
2022/01/08 09:09:40;;;;;;;26.77;17.00;;;;;;;7.62;100.00;99482.59;5046215;28;20699;-66
2022/01/08 09:12:09;;;;;;;20.77;15.30;;;;;;;7.61;100.00;99478.34;5039249;28;20219;-66
2022/01/08 09:14:36;;;;;;;27.50;17.07;;;;;;;7.65;100.00;99473.19;5040602;28;20539;-66
2022/01/08 09:17:05;;;;;;;25.00;14.57;;;;;;;7.64;100.00;99471.50;5042800;28;20209;-66
2022/01/08 09:19:32;;;;;;;112.90;49.80;;;;;;;7.57;100.00;99454.59;5040686;28;20221;-66
2022/01/08 09:22:01;;;;;;;61.03;33.43;;;;;;;7.59;100.00;99446.94;5038848;28;20202;-66
2022/01/08 09:24:28;;;;;;;74.60;34.30;;;;;;;7.66;100.00;99453.59;5041159;28;20243;-67
2022/01/08 09:26:57;;;;;;;19.93;14.87;;;;;;;7.66;100.00;99444.22;5040352;28;20673;-66
2022/01/08 09:29:23;;;;;;;23.27;15.23;;;;;;;7.72;100.00;99448.41;5040378;28;20209;-65
2022/01/08 09:31:50;;;;;;;91.53;39.63;;;;;;;7.75;100.00;99433.03;5044622;28;20277;-65
2022/01/08 09:34:19;;;;;;;30.87;18.13;;;;;;;7.71;100.00;99431.41;5046064;28;20205;-66
2022/01/08 09:36:46;;;;;;;17.60;13.10;;;;;;;7.72;100.00;99422.88;5040055;28;20217;-66
2022/01/08 09:39:14;;;;;;;11.03;9.03;;;;;;;7.67;100.00;99406.81;5040222;28;20255;-66
2022/01/08 09:41:41;;;;;;;12.70;9.83;;;;;;;7.68;100.00;99401.69;5035471;28;20800;-66
2022/01/08 09:44:10;;;;;;;13.67;9.57;;;;;;;7.80;100.00;99414.22;5042082;28;20226;-66
2022/01/08 09:46:37;;;;;;;18.20;10.93;;;;;;;7.70;100.00;99419.50;5041505;28;20558;-66
2022/01/08 09:49:04;;;;;;;13.50;9.20;;;;;;;7.75;100.00;99404.97;5037331;28;20214;-66
2022/01/08 09:51:30;;;;;;;9.17;8.37;;;;;;;7.65;100.00;99383.88;5037102;28;20232;-66
2022/01/08 09:53:57;;;;;;;7.97;7.37;;;;;;;7.79;100.00;99394.66;5035637;28;20212;-66
2022/01/08 09:56:26;;;;;;;9.77;8.47;;;;;;;7.79;100.00;99392.09;5043839;28;20672;-66
2022/01/08 09:58:53;;;;;;;10.73;9.63;;;;;;;7.71;100.00;99386.31;5042843;28;20655;-66
2022/01/08 10:01:26;;;;;;;7.93;7.40;;;;;;;7.72;100.00;99382.06;5039933;28;20746;-66
2022/01/08 10:03:54;;;;;;;30.97;14.57;;;;;;;7.70;100.00;99386.34;5042454;28;20660;-66
2022/01/08 10:06:26;;;;;;;43.40;18.07;;;;;;;7.67;100.00;99376.19;5039847;28;20213;-66
2022/01/08 10:08:54;;;;;;;10.20;7.93;;;;;;;7.67;100.00;99373.63;5038743;28;20850;-66
2022/01/08 10:11:22;;;;;;;13.20;10.43;;;;;;;7.74;100.00;99367.56;5036554;28;20233;-66
2022/01/08 10:13:58;;;;;;;167.30;43.33;;;;;;;7.83;100.00;99369.94;5041978;28;20208;-66
2022/01/08 10:19:18;;;;;;;11.17;10.17;;;;;;;7.82;100.00;99363.13;5042127;28;20207;-67
2022/01/08 10:21:45;;;;;;;8.33;7.53;;;;;;;7.71;100.00;99370.16;5040487;28;20684;-66
2022/01/08 10:24:12;;;;;;;7.53;7.00;;;;;;;7.68;100.00;99362.56;5034614;28;20630;-66
2022/01/08 10:26:43;;;;;;;10.63;8.80;;;;;;;7.60;100.00;99357.59;5039170;28;20204;-66
2022/01/08 10:29:13;;;;;;;13.77;10.00;;;;;;;7.61;100.00;99348.25;5041821;28;20211;-66
2022/01/08 10:31:42;;;;;;;8.80;7.80;;;;;;;7.74;100.00;99354.78;5034990;28;20212;-66
2022/01/08 10:34:11;;;;;;;11.77;9.07;;;;;;;7.79;100.00;99343.63;5036255;28;20210;-66
2022/01/08 10:36:40;;;;;;;9.57;8.20;;;;;;;7.73;100.00;99342.91;5039046;28;20197;-66
2022/01/08 10:39:08;;;;;;;7.73;7.20;;;;;;;7.64;100.00;99338.81;5035222;28;20684;-66
2022/01/08 10:41:42;;;;;;;7.43;6.73;;;;;;;7.63;100.00;99331.19;5037344;28;20226;-66
2022/01/08 10:44:12;;;;;;;4.40;4.13;;;;;;;7.62;100.00;99324.44;5037606;28;20303;-66
2022/01/08 10:46:44;;;;;;;6.27;5.77;;;;;;;7.66;100.00;99326.03;5033138;28;20197;-66
2022/01/08 10:49:14;;;;;;;7.73;7.13;;;;;;;7.69;100.00;99315.78;5045291;28;20204;-66
2022/01/08 10:51:41;;;;;;;6.07;5.70;;;;;;;7.66;100.00;99309.00;5038785;28;20576;-67
2022/01/08 10:54:10;;;;;;;12.90;11.10;;;;;;;7.69;100.00;99311.50;5039359;28;20201;-66
2022/01/08 10:56:40;;;;;;;25.73;18.00;;;;;;;7.72;100.00;99308.88;5041577;28;20200;-66
2022/01/08 10:59:14;;;;;;;10.87;9.97;;;;;;;7.65;100.00;99304.81;5044488;28;20205;-66
2022/01/08 11:01:51;;;;;;;7.13;6.63;;;;;;;7.66;100.00;99305.63;5053436;28;20197;-66
2022/01/08 11:04:20;;;;;;;14.77;10.50;;;;;;;7.44;100.00;99294.16;5045899;28;20204;-66
2022/01/08 11:06:56;;;;;;;24.73;13.87;;;;;;;7.66;100.00;99305.63;5044739;28;20208;-66
2022/01/08 11:09:24;;;;;;;12.23;10.10;;;;;;;7.63;100.00;99291.22;5049990;28;20236;-67
2022/01/08 11:11:52;;;;;;;18.53;11.80;;;;;;;7.71;100.00;99294.47;5043733;28;20585;-66
2022/01/08 11:17:10;;;;;;;20.03;12.93;;;;;;;7.78;100.00;99285.81;5040023;28;20284;-66
2022/01/08 11:19:39;;;;;;;20.07;12.70;;;;;;;7.74;100.00;99275.69;5040361;28;20234;-66
2022/01/08 11:22:12;;;;;;;8.93;8.13;;;;;;;7.85;100.00;99287.34;5037877;28;20193;-66
2022/01/08 11:24:44;;;;;;;9.67;8.63;;;;;;;7.87;100.00;99290.72;5038652;28;20204;-66
2022/01/08 11:27:13;;;;;;;13.77;10.70;;;;;;;7.82;100.00;99286.56;5039641;28;20273;-67
2022/01/08 11:29:40;;;;;;;14.37;10.47;;;;;;;7.69;100.00;99282.63;5036089;28;20205;-66
2022/01/08 11:32:12;;;;;;;11.60;9.37;;;;;;;7.83;100.00;99284.00;5044251;28;20213;-66
2022/01/08 11:34:44;;;;;;;11.03;9.90;;;;;;;7.86;100.00;99270.34;5042679;28;20262;-66
2022/01/08 11:37:11;;;;;;;9.97;9.07;;;;;;;7.94;100.00;99271.03;5044498;28;20730;-66
2022/01/08 11:39:38;;;;;;;8.50;7.50;;;;;;;7.90;100.00;99261.75;5042278;28;20295;-66
2022/01/08 11:42:05;;;;;;;7.77;7.03;;;;;;;7.86;100.00;99267.78;5042014;28;20208;-66
2022/01/08 11:44:35;;;;;;;6.13;5.73;;;;;;;7.70;100.00;99256.22;5048238;28;20621;-66